createdAt,value
2023-11-22T00:01:41.954Z,65.00
2023-11-22T00:06:44.944Z,65.95
2023-11-22T00:11:49.564Z,63.34
2023-11-22T00:16:52.622Z,63.21
2023-11-22T00:21:55.636Z,68.12
2023-11-22T00:27:00.267Z,65.21
2023-11-22T00:32:03.230Z,64.85
2023-11-22T00:37:06.313Z,68.88
2023-11-22T00:42:10.956Z,65.75
2023-11-22T00:47:13.989Z,66.65
2023-11-22T00:52:16.936Z,68.87
2023-11-22T00:57:21.520Z,65.09
2023-11-22T01:02:24.502Z,63.74
2023-11-22T01:07:27.488Z,62.82
2023-11-22T01:12:32.122Z,66.11
2023-11-22T01:17:35.156Z,67.03
2023-11-22T01:22:38.132Z,65.00
2023-11-22T01:27:42.817Z,69.34
2023-11-22T01:32:45.884Z,69.70
2023-11-22T01:37:48.938Z,70.08
2023-11-22T01:42:53.535Z,70.97
2023-11-22T01:47:57.373Z,71.24
2023-11-22T01:53:00.376Z,71.50
2023-11-22T01:58:06.020Z,71.09
2023-11-22T02:03:09.145Z,72.24
2023-11-22T02:08:12.235Z,71.01
2023-11-22T02:13:16.851Z,72.03
2023-11-22T02:18:19.860Z,72.74
2023-11-22T02:23:24.577Z,72.14
2023-11-22T02:28:27.544Z,71.72
2023-11-22T02:33:30.493Z,72.13
2023-11-22T02:38:35.113Z,72.44
2023-11-22T02:43:41.278Z,72.29
2023-11-22T02:48:44.331Z,73.28
2023-11-22T02:53:48.949Z,73.68
2023-11-22T02:58:51.955Z,72.91
2023-11-22T03:03:55.001Z,72.87
2023-11-22T03:08:59.686Z,72.70
2023-11-22T03:14:02.653Z,73.61
2023-11-22T03:19:05.642Z,73.43
2023-11-22T03:24:10.662Z,74.16
2023-11-22T03:29:13.636Z,74.75
2023-11-22T03:34:16.598Z,74.86
2023-11-22T03:39:21.238Z,74.77
2023-11-22T03:44:24.244Z,74.65
2023-11-22T03:49:27.277Z,74.76
2023-11-22T03:54:32.887Z,75.04
2023-11-22T03:59:36.878Z,74.93
2023-11-22T04:04:39.979Z,76.43
2023-11-22T04:09:44.561Z,76.39
2023-11-22T04:14:47.655Z,76.89
2023-11-22T04:19:50.748Z,77.17
2023-11-22T04:24:56.371Z,75.90
2023-11-22T04:29:59.344Z,75.80
2023-11-22T04:35:02.290Z,74.88
2023-11-22T04:40:07.788Z,75.88
2023-11-22T04:45:11.443Z,75.73
2023-11-22T04:50:14.583Z,74.98
2023-11-22T04:55:20.519Z,75.29
2023-11-22T05:00:23.731Z,74.91
2023-11-22T05:05:26.701Z,75.15
2023-11-22T05:10:31.346Z,74.33
2023-11-22T05:15:34.315Z,74.25
2023-11-22T05:20:37.323Z,75.10
2023-11-22T05:25:41.943Z,75.44
2023-11-22T05:30:44.953Z,75.53
2023-11-22T05:35:47.937Z,75.79
2023-11-22T05:40:52.580Z,75.24
2023-11-22T05:45:55.597Z,75.63
2023-11-22T05:50:58.650Z,75.52
2023-11-22T05:56:04.518Z,75.62
2023-11-22T06:01:08.803Z,75.85
2023-11-22T06:06:11.759Z,75.65
2023-11-22T06:11:16.526Z,75.21
2023-11-22T06:16:19.598Z,76.03
2023-11-22T06:21:22.728Z,75.98
2023-11-22T06:26:27.522Z,75.96
2023-11-22T06:31:30.508Z,76.29
2023-11-22T06:36:33.484Z,75.80
2023-11-22T06:41:38.128Z,75.85
2023-11-22T06:46:41.125Z,75.91
2023-11-22T06:51:44.114Z,76.23
2023-11-22T06:56:48.778Z,76.70
2023-11-22T07:01:51.778Z,76.47
2023-11-22T07:06:54.734Z,76.27
2023-11-22T07:11:59.314Z,75.43
2023-11-22T07:17:02.253Z,75.52
2023-11-22T07:22:05.398Z,75.67
2023-11-22T07:27:11.061Z,76.36
2023-11-22T07:32:14.015Z,77.29
2023-11-22T07:37:16.987Z,76.33
2023-11-22T07:42:21.588Z,76.69
2023-11-22T07:47:24.632Z,77.03
2023-11-22T07:52:27.648Z,77.41
2023-11-22T07:57:32.247Z,77.50
2023-11-22T08:02:36.429Z,77.84
2023-11-22T08:07:40.856Z,77.44
2023-11-22T08:12:45.475Z,77.57
2023-11-22T08:17:48.864Z,78.02
2023-11-22T08:22:52.144Z,78.11
2023-11-22T08:27:57.950Z,78.81
2023-11-22T08:33:01.000Z,78.72
2023-11-22T08:38:04.033Z,78.46
2023-11-22T08:43:08.659Z,78.11
2023-11-22T08:48:11.741Z,77.67
2023-11-22T08:53:14.863Z,77.98
2023-11-22T08:58:19.472Z,78.10
2023-11-22T09:03:22.454Z,77.79
2023-11-22T09:08:27.646Z,78.56
2023-11-22T09:13:34.925Z,78.67
2023-11-22T09:18:38.408Z,78.58
2023-11-22T09:23:41.420Z,78.54
2023-11-22T09:28:46.063Z,79.51
2023-11-22T09:33:49.213Z,78.87
2023-11-22T09:38:53.065Z,78.31
2023-11-22T09:43:57.712Z,78.61
2023-11-22T09:49:01.019Z,79.54
2023-11-22T09:54:06.235Z,80.08
2023-11-22T09:59:13.888Z,79.69
2023-11-22T10:04:17.138Z,77.98
2023-11-22T10:09:20.178Z,79.70
2023-11-22T10:14:27.496Z,79.15
2023-11-22T10:19:30.600Z,79.77
2023-11-22T10:24:33.717Z,79.77
2023-11-22T10:29:38.411Z,79.93
2023-11-22T10:34:41.460Z,79.99
2023-11-22T10:39:44.441Z,80.74
2023-11-22T10:44:50.202Z,80.25
2023-11-22T10:49:53.202Z,79.31
2023-11-22T10:55:03.905Z,79.97
2023-11-22T11:00:09.849Z,78.94
2023-11-22T11:05:16.767Z,78.79
2023-11-22T11:10:25.220Z,79.01
2023-11-22T11:15:30.336Z,79.88
2023-11-22T11:20:34.433Z,79.59
2023-11-22T11:25:37.461Z,80.75
2023-11-22T11:30:46.615Z,79.78
2023-11-22T11:35:50.179Z,81.13
2023-11-22T11:40:53.930Z,80.56
2023-11-22T11:46:02.252Z,80.93
2023-11-22T11:51:05.275Z,80.83
2023-11-22T11:56:09.623Z,80.92
2023-11-22T12:01:15.713Z,80.63
2023-11-22T12:06:20.022Z,80.68
2023-11-22T12:11:23.197Z,79.65
2023-11-22T12:16:27.898Z,81.03
2023-11-22T12:21:31.854Z,80.53
2023-11-22T12:26:34.817Z,79.25
2023-11-22T12:31:45.534Z,80.78
2023-11-22T12:36:49.647Z,80.60
2023-11-22T12:42:01.645Z,78.99
2023-11-22T12:47:11.357Z,79.15
2023-11-22T12:52:14.292Z,79.31
2023-11-22T12:57:19.711Z,79.90
2023-11-22T13:02:25.295Z,77.82
2023-11-22T13:07:28.329Z,78.28
2023-11-22T13:12:31.288Z,78.82
2023-11-22T13:17:36.919Z,79.68
2023-11-22T13:22:39.870Z,78.72
2023-11-22T13:27:42.801Z,78.71
2023-11-22T13:32:47.567Z,78.14
2023-11-22T13:37:50.904Z,78.05
2023-11-22T13:42:53.937Z,79.52
2023-11-22T13:47:58.646Z,78.93
2023-11-22T13:53:01.660Z,79.21
2023-11-22T13:58:04.727Z,79.54
2023-11-22T14:03:09.869Z,79.42
2023-11-22T14:08:13.446Z,78.83
2023-11-22T14:13:16.907Z,79.57
2023-11-22T14:18:21.668Z,79.33
2023-11-22T14:23:24.672Z,79.84
2023-11-22T14:28:27.649Z,78.94
2023-11-22T14:33:32.352Z,79.65
2023-11-22T14:38:35.346Z,79.95
2023-11-22T14:43:38.301Z,79.50
2023-11-22T14:48:42.987Z,79.74
2023-11-22T14:53:45.978Z,80.30
2023-11-22T14:58:48.935Z,80.00
2023-11-22T15:03:54.587Z,80.56
2023-11-22T15:08:57.618Z,81.43
2023-11-22T15:14:00.601Z,80.88
2023-11-22T15:19:05.323Z,80.09
2023-11-22T15:24:08.718Z,78.66
2023-11-22T15:29:11.701Z,79.26
2023-11-22T15:34:17.278Z,79.36
2023-11-22T15:39:20.240Z,76.62
2023-11-22T15:44:23.282Z,77.50
2023-11-22T15:49:27.879Z,76.64
2023-11-22T15:54:30.804Z,74.22
2023-11-22T15:59:33.802Z,73.31
2023-11-22T16:04:38.426Z,76.47
2023-11-22T16:09:41.374Z,74.35
2023-11-22T16:14:44.404Z,75.81
2023-11-22T16:19:49.095Z,73.16
2023-11-22T16:24:52.051Z,74.59
2023-11-22T16:29:55.149Z,74.12
2023-11-22T16:34:59.885Z,74.67
2023-11-22T16:40:02.818Z,75.10
2023-11-22T16:45:06.378Z,70.26
2023-11-22T16:50:11.556Z,69.59
2023-11-22T16:55:14.553Z,73.16
2023-11-22T17:00:19.179Z,73.57
2023-11-22T17:05:24.139Z,72.17
2023-11-22T17:10:45.206Z,73.51
2023-11-22T17:15:50.064Z,70.79
2023-11-22T17:20:54.708Z,69.73
2023-11-22T17:25:57.673Z,73.62
2023-11-22T17:31:00.679Z,71.86
2023-11-22T17:36:05.997Z,67.36
2023-11-22T17:41:09.165Z,67.69
2023-11-22T17:46:12.125Z,65.64
2023-11-22T17:51:16.738Z,60.58
2023-11-22T17:56:19.685Z,54.38
2023-11-22T18:01:22.653Z,50.51
2023-11-22T18:06:27.267Z,46.87
2023-11-22T18:11:30.245Z,47.40
2023-11-22T18:16:33.180Z,45.90
2023-11-22T18:21:37.798Z,43.95
2023-11-22T18:26:40.823Z,44.22
2023-11-22T18:31:43.856Z,40.80
2023-11-22T18:36:48.468Z,42.24
2023-11-22T18:41:52.200Z,43.80
2023-11-22T18:46:55.169Z,42.38
2023-11-22T18:52:00.730Z,43.97
2023-11-22T18:57:03.708Z,44.54
2023-11-22T19:02:07.186Z,41.10
2023-11-22T19:07:12.048Z,39.43
2023-11-22T19:12:15.006Z,39.42
2023-11-22T19:17:17.929Z,41.45
2023-11-22T19:22:22.581Z,42.33
2023-11-22T19:27:25.539Z,37.25
2023-11-22T19:32:28.524Z,37.41
2023-11-22T19:37:33.131Z,37.72
2023-11-22T19:42:36.081Z,36.25
2023-11-22T19:47:39.050Z,35.97
2023-11-22T19:52:44.693Z,39.20
2023-11-22T19:57:47.654Z,40.49
2023-11-22T20:02:50.778Z,38.07
2023-11-22T20:07:55.436Z,35.00
2023-11-22T20:12:58.367Z,34.38
2023-11-22T20:18:01.459Z,35.00
2023-11-22T20:23:06.850Z,35.67
2023-11-22T20:28:09.882Z,37.19
2023-11-22T20:33:12.934Z,36.03
2023-11-22T20:38:17.583Z,37.55
2023-11-22T20:43:20.521Z,36.29
2023-11-22T20:48:23.542Z,35.77
2023-11-22T20:53:28.173Z,35.24
2023-11-22T20:58:31.161Z,35.01
2023-11-22T21:03:34.200Z,34.62
2023-11-22T21:08:38.911Z,34.92
2023-11-22T21:13:41.925Z,36.08
2023-11-22T21:18:44.939Z,36.54
2023-11-22T21:23:49.633Z,36.52
2023-11-22T21:28:52.588Z,35.07
2023-11-22T21:33:55.628Z,36.13
2023-11-22T21:39:00.427Z,36.64
2023-11-22T21:44:03.429Z,39.07
2023-11-22T21:49:06.432Z,39.36
2023-11-22T21:54:11.183Z,45.56
2023-11-22T21:59:14.139Z,44.54
2023-11-22T22:04:17.367Z,45.69
2023-11-22T22:09:22.107Z,43.33
2023-11-22T22:14:25.072Z,44.12
2023-11-22T22:19:28.107Z,42.35
2023-11-22T22:24:32.748Z,45.96
2023-11-22T22:29:35.725Z,48.95
2023-11-22T22:34:38.687Z,47.52
2023-11-22T22:39:44.026Z,46.61
2023-11-22T22:44:46.994Z,54.66
2023-11-22T22:49:49.935Z,52.97
2023-11-22T22:54:54.964Z,52.83
2023-11-22T22:59:57.978Z,50.73
2023-11-22T23:05:00.944Z,57.12
2023-11-22T23:10:05.827Z,55.23
2023-11-22T23:15:09.437Z,57.62
2023-11-22T23:20:13.042Z,59.79
2023-11-22T23:25:17.693Z,55.58
2023-11-22T23:30:20.783Z,58.08
2023-11-22T23:35:24.169Z,58.15
2023-11-22T23:40:28.769Z,57.26
2023-11-22T23:45:31.718Z,60.58
2023-11-22T23:50:34.652Z,57.98
2023-11-22T23:55:39.229Z,59.30
